createdAt,value
2022-12-01T00:01:14.150Z,-0.20
2022-12-01T00:03:41.076Z,-0.20
2022-12-01T00:06:11.112Z,-0.40
2022-12-01T00:11:26.384Z,-0.50
2022-12-01T00:13:53.492Z,-0.30
2022-12-01T00:16:20.467Z,-0.20
2022-12-01T00:18:52.704Z,-0.30
2022-12-01T00:21:21.360Z,-0.30
2022-12-01T00:23:52.845Z,-0.20
2022-12-01T00:26:20.284Z,-0.20
2022-12-01T00:28:54.336Z,0.20
2022-12-01T00:31:21.417Z,-0.10
2022-12-01T00:33:48.424Z,-0.20
2022-12-01T00:36:15.553Z,-0.20
2022-12-01T00:38:42.469Z,-0.10
2022-12-01T00:41:09.385Z,-0.30
2022-12-01T00:46:26.711Z,-0.30
2022-12-01T00:48:53.745Z,-0.20
2022-12-01T00:51:20.656Z,-0.30
2022-12-01T00:53:47.565Z,0.20
2022-12-01T00:56:15.309Z,-0.20
2022-12-01T00:58:42.298Z,-0.30
2022-12-01T01:01:09.237Z,-0.50
2022-12-01T01:03:36.228Z,0.00
2022-12-01T01:06:07.639Z,-0.10
2022-12-01T01:08:34.701Z,-0.10
2022-12-01T01:11:01.684Z,0.30
2022-12-01T01:13:28.848Z,0.00
2022-12-01T01:16:00.479Z,0.10
2022-12-01T01:18:28.023Z,0.10
2022-12-01T01:20:59.120Z,0.10
2022-12-01T01:23:26.274Z,0.00
2022-12-01T01:25:53.365Z,0.10
2022-12-01T01:28:20.432Z,0.10
2022-12-01T01:30:47.404Z,0.10
2022-12-01T01:33:14.512Z,0.10
2022-12-01T01:35:41.424Z,0.30
2022-12-01T01:38:08.332Z,0.10
2022-12-01T01:40:35.263Z,0.00
2022-12-01T01:43:02.135Z,0.00
2022-12-01T01:45:29.951Z,-0.10
2022-12-01T01:47:58.011Z,-0.10
2022-12-01T01:50:26.207Z,-0.10
2022-12-01T01:52:59.941Z,-0.10
2022-12-01T01:55:27.465Z,-0.10
2022-12-01T01:57:54.291Z,0.50
2022-12-01T02:00:21.447Z,-0.10
2022-12-01T02:02:48.490Z,-0.10
2022-12-01T02:05:21.001Z,-0.10
2022-12-01T02:07:48.419Z,-0.10
2022-12-01T02:10:15.460Z,-0.10
2022-12-01T02:12:54.615Z,-0.10
2022-12-01T02:15:24.608Z,-0.20
2022-12-01T02:18:03.899Z,-0.20
2022-12-01T02:21:10.691Z,-0.10
2022-12-01T02:23:46.556Z,-0.10
2022-12-01T02:26:31.334Z,-0.10
2022-12-01T02:29:07.948Z,-0.10
2022-12-01T02:31:45.572Z,-0.10
2022-12-01T02:34:22.365Z,-0.10
2022-12-01T02:37:30.904Z,-0.10
2022-12-01T02:40:03.696Z,0.00
2022-12-01T02:42:50.293Z,0.00
2022-12-01T02:45:24.492Z,-0.10
2022-12-01T02:47:51.990Z,0.00
2022-12-01T02:50:18.819Z,0.40
2022-12-01T02:52:45.828Z,0.10
2022-12-01T02:55:13.336Z,0.10
2022-12-01T02:57:40.246Z,0.40
2022-12-01T03:00:07.907Z,0.00
2022-12-01T03:03:12.202Z,0.10
2022-12-01T03:05:45.092Z,0.10
2022-12-01T03:08:19.831Z,0.10
2022-12-01T03:10:54.840Z,0.10
2022-12-01T03:13:33.132Z,0.00
2022-12-01T03:16:13.216Z,0.00
2022-12-01T03:18:57.784Z,0.00
2022-12-01T03:21:32.726Z,0.00
2022-12-01T03:24:05.818Z,0.00
2022-12-01T03:26:33.393Z,0.00
2022-12-01T03:29:03.937Z,0.00
2022-12-01T03:31:37.164Z,-0.10
2022-12-01T03:34:33.093Z,0.00
2022-12-01T03:37:03.736Z,-0.10
2022-12-01T03:39:34.720Z,0.10
2022-12-01T03:42:05.761Z,0.30
2022-12-01T03:44:39.802Z,-0.20
2022-12-01T03:47:08.843Z,-0.10
2022-12-01T03:49:35.997Z,-0.20
2022-12-01T03:52:38.562Z,-0.20
2022-12-01T03:55:13.236Z,-0.10
2022-12-01T03:58:22.620Z,-0.30
2022-12-01T04:00:53.331Z,-0.30
2022-12-01T04:03:20.901Z,-0.40
2022-12-01T04:05:48.096Z,-0.30
2022-12-01T04:08:15.107Z,-0.20
2022-12-01T04:10:42.018Z,-0.40
2022-12-01T04:13:16.421Z,-0.40
2022-12-01T04:15:44.091Z,-0.40
2022-12-01T04:18:11.047Z,-0.40
2022-12-01T04:20:37.979Z,-0.40
2022-12-01T04:23:04.881Z,-0.30
2022-12-01T04:25:31.777Z,-0.30
2022-12-01T04:27:58.720Z,-0.30
2022-12-01T04:30:25.717Z,-0.30
2022-12-01T04:32:52.628Z,-0.20
2022-12-01T04:35:19.597Z,-0.20
2022-12-01T04:37:46.496Z,-0.10
2022-12-01T04:40:13.565Z,-0.20
2022-12-01T04:42:40.476Z,-0.30
2022-12-01T04:45:07.965Z,-0.30
2022-12-01T04:47:34.950Z,-0.30
2022-12-01T04:50:01.945Z,-0.20
2022-12-01T04:52:34.899Z,-0.40
2022-12-01T04:55:03.583Z,-0.40
2022-12-01T04:57:30.501Z,-0.40
2022-12-01T04:59:57.438Z,-0.50
2022-12-01T05:02:24.442Z,-0.60
2022-12-01T05:04:51.405Z,-0.60
2022-12-01T05:07:18.451Z,-0.60
2022-12-01T05:09:45.479Z,-0.50
2022-12-01T05:12:12.484Z,-0.60
2022-12-01T05:14:39.385Z,-0.30
2022-12-01T05:17:06.367Z,-0.70
2022-12-01T05:19:51.611Z,-0.70
2022-12-01T05:22:36.481Z,-0.80
2022-12-01T05:25:05.952Z,-0.70
2022-12-01T05:27:32.945Z,-0.80
2022-12-01T05:29:59.854Z,-0.70
2022-12-01T05:32:26.812Z,-0.60
2022-12-01T05:34:53.746Z,-0.70
2022-12-01T05:37:20.664Z,-0.20
2022-12-01T05:39:48.086Z,-0.70
2022-12-01T05:42:15.366Z,-0.50
2022-12-01T05:44:42.258Z,-0.50
2022-12-01T05:47:09.160Z,-0.70
2022-12-01T05:49:36.102Z,-0.70
2022-12-01T05:52:04.315Z,-0.20
2022-12-01T05:54:31.236Z,-0.70
2022-12-01T05:56:58.286Z,-0.70
2022-12-01T05:59:25.135Z,-0.70
2022-12-01T06:01:53.073Z,-0.70
2022-12-01T06:04:20.890Z,-0.60
2022-12-01T06:06:51.887Z,-0.60
2022-12-01T06:09:18.791Z,-0.60
2022-12-01T06:11:48.051Z,-0.40
2022-12-01T06:14:18.240Z,-0.40
2022-12-01T06:16:45.281Z,-0.40
2022-12-01T06:19:12.219Z,-0.30
2022-12-01T06:21:39.181Z,-0.20
2022-12-01T06:24:06.432Z,-0.30
2022-12-01T06:26:33.387Z,-0.30
2022-12-01T06:29:00.437Z,-0.30
2022-12-01T06:31:27.391Z,-0.20
2022-12-01T06:33:54.322Z,-0.10
2022-12-01T06:36:21.425Z,-0.20
2022-12-01T06:38:48.296Z,-0.30
2022-12-01T06:41:15.182Z,-0.10
2022-12-01T06:43:42.111Z,-0.10
2022-12-01T06:46:09.138Z,-0.10
2022-12-01T06:48:36.263Z,-0.20
2022-12-01T06:51:03.340Z,-0.10
2022-12-01T06:53:30.368Z,-0.20
2022-12-01T06:56:03.761Z,-0.10
2022-12-01T06:58:31.071Z,-0.10
2022-12-01T07:00:59.358Z,-0.10
2022-12-01T07:03:26.505Z,-0.10
2022-12-01T07:06:00.248Z,0.00
2022-12-01T07:08:30.446Z,0.00
2022-12-01T07:11:07.724Z,0.00
2022-12-01T07:13:35.051Z,0.00
2022-12-01T07:16:06.015Z,0.40
2022-12-01T07:21:07.252Z,0.20
2022-12-01T07:23:34.328Z,0.20
2022-12-01T07:26:02.173Z,0.30
2022-12-01T07:28:29.277Z,0.30
2022-12-01T07:31:04.268Z,0.20
2022-12-01T07:33:31.442Z,0.30
2022-12-01T07:35:58.544Z,0.20
2022-12-01T07:38:25.721Z,0.30
2022-12-01T07:40:52.638Z,0.20
2022-12-01T07:43:19.600Z,0.30
2022-12-01T07:45:46.762Z,0.30
2022-12-01T07:48:13.756Z,0.40
2022-12-01T07:50:40.670Z,0.50
2022-12-01T07:53:08.149Z,0.40
2022-12-01T07:55:35.136Z,0.50
2022-12-01T07:58:02.090Z,0.50
2022-12-01T08:00:29.111Z,0.50
2022-12-01T08:02:56.101Z,0.70
2022-12-01T08:05:23.049Z,0.60
2022-12-01T08:07:50.073Z,0.80
2022-12-01T08:10:17.094Z,0.70
2022-12-01T08:12:46.469Z,0.70
2022-12-01T08:15:13.474Z,0.70
2022-12-01T08:17:40.544Z,0.80
2022-12-01T08:20:08.274Z,0.80
2022-12-01T08:22:35.216Z,0.70
2022-12-01T08:25:02.207Z,0.80
2022-12-01T08:27:29.192Z,0.80
2022-12-01T08:29:56.130Z,0.90
2022-12-01T08:32:23.072Z,0.90
2022-12-01T08:34:53.448Z,1.00
2022-12-01T08:37:20.747Z,0.90
2022-12-01T08:39:47.869Z,1.00
2022-12-01T08:42:15.116Z,0.90
2022-12-01T08:44:42.166Z,0.90
2022-12-01T08:47:12.047Z,1.00
2022-12-01T08:49:41.263Z,0.80
2022-12-01T08:52:08.227Z,0.90
2022-12-01T08:54:35.288Z,0.90
2022-12-01T08:57:02.203Z,0.80
2022-12-01T08:59:29.242Z,0.70
2022-12-01T09:01:57.566Z,0.80
2022-12-01T09:04:26.054Z,1.00
2022-12-01T09:09:28.879Z,1.00
2022-12-01T09:11:56.119Z,1.20
2022-12-01T09:14:23.334Z,1.20
2022-12-01T09:16:50.684Z,1.20
2022-12-01T09:19:24.262Z,1.30
2022-12-01T09:21:52.030Z,1.40
2022-12-01T09:24:19.004Z,1.30
2022-12-01T09:26:45.991Z,1.30
2022-12-01T09:29:14.160Z,1.20
2022-12-01T09:31:41.417Z,1.20
2022-12-01T09:34:11.245Z,1.20
2022-12-01T09:36:38.505Z,1.30
2022-12-01T09:39:06.691Z,1.20
2022-12-01T09:41:38.188Z,1.20
2022-12-01T09:44:31.167Z,1.20
2022-12-01T09:47:14.536Z,1.20
2022-12-01T09:49:46.296Z,1.30
2022-12-01T09:52:15.431Z,1.30
2022-12-01T09:54:42.467Z,1.40
2022-12-01T09:57:36.874Z,1.50
2022-12-01T10:00:09.240Z,1.60
2022-12-01T10:02:41.254Z,1.60
2022-12-01T10:05:12.444Z,1.60
2022-12-01T10:08:00.788Z,1.50
2022-12-01T10:10:35.878Z,1.50
2022-12-01T10:13:02.915Z,1.60
2022-12-01T10:15:42.282Z,1.70
2022-12-01T10:18:19.352Z,1.70
2022-12-01T10:20:57.408Z,1.70
2022-12-01T10:23:50.749Z,1.80
2022-12-01T10:26:28.577Z,1.80
2022-12-01T10:29:02.731Z,1.70
2022-12-01T10:31:46.938Z,1.80
2022-12-01T10:34:20.448Z,1.80
2022-12-01T10:36:47.471Z,1.90
2022-12-01T10:39:18.162Z,1.90
2022-12-01T10:41:45.029Z,1.90
2022-12-01T10:44:11.977Z,1.90
2022-12-01T10:46:46.170Z,2.00
2022-12-01T10:49:14.674Z,2.00
2022-12-01T10:51:56.913Z,2.00
2022-12-01T10:54:35.832Z,2.00
2022-12-01T10:57:02.813Z,2.00
2022-12-01T10:59:44.562Z,2.00
2022-12-01T11:02:21.792Z,2.00
2022-12-01T11:05:18.814Z,2.00
2022-12-01T11:07:47.216Z,2.10
2022-12-01T11:10:23.137Z,2.10
2022-12-01T11:13:23.854Z,2.20
2022-12-01T11:15:58.920Z,2.20
2022-12-01T11:18:32.252Z,2.30
2022-12-01T11:21:25.578Z,2.30
2022-12-01T11:23:53.721Z,2.30
2022-12-01T11:26:28.700Z,2.30
2022-12-01T11:29:21.096Z,2.40
2022-12-01T11:31:49.469Z,2.40
2022-12-01T11:34:21.971Z,2.40
2022-12-01T11:36:53.956Z,2.40
2022-12-01T11:39:23.948Z,2.40
2022-12-01T11:41:55.705Z,2.30
2022-12-01T11:44:49.595Z,2.20
2022-12-01T11:47:23.070Z,2.10
2022-12-01T11:49:57.689Z,2.20
2022-12-01T11:52:27.446Z,2.20
2022-12-01T11:55:21.888Z,2.20
2022-12-01T11:57:50.549Z,2.20
2022-12-01T12:00:20.117Z,2.20
2022-12-01T12:02:47.164Z,2.20
2022-12-01T12:05:22.973Z,2.30
2022-12-01T12:08:17.414Z,2.30
2022-12-01T12:10:50.531Z,2.40
2022-12-01T12:13:35.833Z,2.50
2022-12-01T12:16:30.304Z,2.50
2022-12-01T12:19:14.140Z,2.50
2022-12-01T12:22:00.586Z,2.60
2022-12-01T12:24:43.474Z,2.60
2022-12-01T12:27:31.477Z,2.60
2022-12-01T12:30:04.011Z,2.50
2022-12-01T12:32:40.953Z,2.60
2022-12-01T12:35:33.733Z,2.70
2022-12-01T12:38:38.264Z,2.80
2022-12-01T12:41:17.171Z,2.90
2022-12-01T12:43:53.136Z,3.00
2022-12-01T12:46:32.158Z,3.10
2022-12-01T12:52:15.587Z,3.30
2022-12-01T12:54:44.206Z,3.40
2022-12-01T12:57:28.507Z,3.30
2022-12-01T13:00:00.166Z,3.20
2022-12-01T13:02:35.757Z,3.10
2022-12-01T13:05:23.532Z,2.90
2022-12-01T13:07:53.570Z,2.70
2022-12-01T13:10:23.411Z,2.60
2022-12-01T13:13:24.282Z,2.50
2022-12-01T13:15:51.500Z,2.50
2022-12-01T13:18:29.170Z,2.30
2022-12-01T13:20:56.217Z,2.20
2022-12-01T13:23:25.412Z,2.10
2022-12-01T13:25:54.365Z,2.10
2022-12-01T13:28:24.247Z,2.00
2022-12-01T13:31:20.989Z,2.00
2022-12-01T13:33:59.859Z,1.80
2022-12-01T13:39:28.126Z,1.80
2022-12-01T13:42:24.955Z,1.90
2022-12-01T13:44:53.107Z,1.90
2022-12-01T13:47:20.126Z,1.90
2022-12-01T13:49:48.458Z,1.90
2022-12-01T13:52:21.760Z,2.00
2022-12-01T13:55:07.988Z,2.00
2022-12-01T13:57:39.523Z,2.00
2022-12-01T14:00:26.274Z,2.10
2022-12-01T14:03:15.192Z,2.10
2022-12-01T14:05:42.095Z,2.10
2022-12-01T14:08:31.657Z,2.20
2022-12-01T14:11:24.849Z,2.10
2022-12-01T14:14:26.059Z,2.10
2022-12-01T14:17:02.758Z,2.10
2022-12-01T14:19:49.016Z,2.10
2022-12-01T14:22:38.558Z,2.00
2022-12-01T14:25:27.139Z,2.00
2022-12-01T14:27:56.499Z,1.90
2022-12-01T14:30:42.164Z,1.90
2022-12-01T14:33:40.467Z,1.90
2022-12-01T14:36:52.950Z,1.90
2022-12-01T14:39:36.729Z,1.90
2022-12-01T14:42:10.797Z,1.90
2022-12-01T14:45:08.858Z,2.00
2022-12-01T14:47:49.896Z,1.90
2022-12-01T14:50:46.570Z,1.90
2022-12-01T14:53:36.648Z,1.80
2022-12-01T14:56:18.634Z,1.80
2022-12-01T14:58:52.621Z,1.70
2022-12-01T15:01:19.796Z,1.80
2022-12-01T15:03:58.363Z,1.70
2022-12-01T15:06:33.111Z,1.70
2022-12-01T15:09:34.886Z,1.70
2022-12-01T15:12:04.917Z,1.70
2022-12-01T15:14:34.093Z,1.70
2022-12-01T15:17:02.839Z,1.70
2022-12-01T15:19:36.126Z,1.60
2022-12-01T15:22:05.857Z,1.60
2022-12-01T15:27:03.504Z,1.60
2022-12-01T15:29:32.589Z,1.60
2022-12-01T15:32:02.203Z,1.70
2022-12-01T15:37:14.211Z,1.50
2022-12-01T15:39:45.254Z,1.40
2022-12-01T15:42:23.813Z,1.50
2022-12-01T15:45:13.007Z,1.40
2022-12-01T15:47:45.942Z,1.40
2022-12-01T15:50:31.404Z,1.40
2022-12-01T15:52:58.650Z,1.40
2022-12-01T15:55:30.553Z,1.30
2022-12-01T15:57:58.171Z,1.30
2022-12-01T16:00:25.453Z,1.30
2022-12-01T16:02:56.285Z,1.20
2022-12-01T16:05:36.095Z,1.20
2022-12-01T16:08:21.300Z,1.30
2022-12-01T16:14:05.437Z,1.00
2022-12-01T16:16:49.330Z,0.70
2022-12-01T16:20:33.212Z,0.40
2022-12-01T16:23:04.207Z,0.40
2022-12-01T16:25:34.775Z,0.20
2022-12-01T16:28:01.819Z,0.20
2022-12-01T16:30:31.218Z,0.10
2022-12-01T16:33:07.412Z,0.00
2022-12-01T16:35:35.339Z,0.00
2022-12-01T16:38:11.267Z,0.20
2022-12-01T16:40:41.309Z,-0.10
2022-12-01T16:43:16.235Z,-0.10
2022-12-01T16:45:44.029Z,0.10
2022-12-01T16:54:28.507Z,0.00
2022-12-01T16:56:59.845Z,-0.10
2022-12-01T17:04:51.038Z,-0.30
2022-12-01T17:07:18.160Z,-0.30
2022-12-01T17:09:45.046Z,-0.30
2022-12-01T17:12:11.920Z,-0.30
2022-12-01T17:14:38.781Z,-0.50
2022-12-01T17:17:06.754Z,-0.40
2022-12-01T17:19:36.151Z,-0.60
2022-12-01T17:22:04.604Z,-0.50
2022-12-01T17:24:31.595Z,-0.40
2022-12-01T17:26:58.631Z,0.10
2022-12-01T17:29:26.504Z,-0.30
2022-12-01T17:31:53.508Z,-0.30
2022-12-01T17:34:20.450Z,-0.30
2022-12-01T17:36:47.433Z,-0.40
2022-12-01T17:39:15.097Z,-0.30
2022-12-01T17:41:43.400Z,-0.40
2022-12-01T17:44:10.397Z,-0.50
2022-12-01T17:46:44.642Z,-0.50
2022-12-01T17:49:13.403Z,-0.40
2022-12-01T17:51:40.713Z,0.00
2022-12-01T17:54:08.073Z,0.00
2022-12-01T17:59:17.287Z,-0.90
2022-12-01T18:01:59.181Z,-0.80
2022-12-01T18:04:52.116Z,-1.10
2022-12-01T18:07:19.439Z,-1.30
2022-12-01T18:09:46.342Z,-1.20
2022-12-01T18:12:13.297Z,-1.00
2022-12-01T18:14:41.064Z,-1.30
2022-12-01T18:17:08.006Z,-1.00
2022-12-01T18:19:35.299Z,-1.30
2022-12-01T18:22:02.316Z,-1.30
2022-12-01T18:24:29.259Z,-0.90
2022-12-01T18:26:56.794Z,-0.50
2022-12-01T18:29:28.770Z,-1.30
2022-12-01T18:31:56.538Z,-1.30
2022-12-01T18:34:23.628Z,-1.10
2022-12-01T18:36:50.756Z,-1.50
2022-12-01T18:39:17.942Z,-1.50
2022-12-01T18:41:50.652Z,-1.70
2022-12-01T18:44:17.612Z,-0.40
2022-12-01T18:46:45.512Z,-1.30
2022-12-01T18:49:13.591Z,-1.60
2022-12-01T18:51:41.241Z,-1.00
2022-12-01T18:54:09.807Z,-1.70
2022-12-01T18:59:12.862Z,-1.70
2022-12-01T19:01:43.954Z,-1.80
2022-12-01T19:04:11.662Z,-1.80
2022-12-01T19:06:39.249Z,-1.70
2022-12-01T19:09:07.291Z,-1.60
2022-12-01T19:11:34.215Z,-1.30
2022-12-01T19:14:01.455Z,-2.00
2022-12-01T19:16:28.506Z,-2.00
2022-12-01T19:18:55.486Z,-2.00
2022-12-01T19:21:22.614Z,-1.80
2022-12-01T19:23:49.747Z,-1.60
2022-12-01T19:26:19.020Z,-2.30
2022-12-01T19:28:46.207Z,-2.00
2022-12-01T19:31:17.943Z,-2.20
2022-12-01T19:33:45.210Z,-2.20
2022-12-01T19:36:14.981Z,-2.30
2022-12-01T19:38:42.253Z,-2.20
2022-12-01T19:41:10.109Z,-2.30
2022-12-01T19:43:37.640Z,-1.90
2022-12-01T19:46:13.298Z,-2.20
2022-12-01T19:48:40.512Z,-2.50
2022-12-01T19:51:07.806Z,-2.30
2022-12-01T19:53:35.307Z,-2.00
2022-12-01T19:56:03.255Z,-2.20
2022-12-01T19:58:32.534Z,-1.10
2022-12-01T20:03:36.877Z,-2.20
2022-12-01T20:06:13.727Z,-1.20
2022-12-01T20:08:40.948Z,-2.20
2022-12-01T20:11:08.289Z,-1.30
2022-12-01T20:13:36.697Z,-2.10
2022-12-01T20:16:04.306Z,-1.10
2022-12-01T20:18:31.458Z,-1.00
2022-12-01T20:21:16.601Z,-0.90
2022-12-01T20:23:44.437Z,-1.50
2022-12-01T20:26:11.541Z,-1.40
2022-12-01T20:28:39.129Z,-1.20
2022-12-01T20:31:23.182Z,-1.30
2022-12-01T20:33:51.100Z,-1.30
2022-12-01T20:36:18.339Z,-1.40
2022-12-01T20:38:45.535Z,-0.80
2022-12-01T20:41:12.645Z,-1.30
2022-12-01T20:43:39.996Z,-0.90
2022-12-01T20:46:07.455Z,-1.20
2022-12-01T20:48:34.861Z,-1.20
2022-12-01T20:51:09.260Z,-1.20
2022-12-01T20:53:36.952Z,-1.10
2022-12-01T20:56:08.865Z,-1.20
2022-12-01T20:58:37.768Z,-1.20
2022-12-01T21:01:09.434Z,-1.10
2022-12-01T21:03:37.995Z,-1.00
2022-12-01T21:06:05.511Z,-1.00
2022-12-01T21:08:32.431Z,-1.10
2022-12-01T21:11:08.620Z,-0.90
2022-12-01T21:13:44.502Z,-1.10
2022-12-01T21:16:28.761Z,-1.20
2022-12-01T21:21:57.363Z,-1.30
2022-12-01T21:24:33.501Z,-1.40
2022-12-01T21:27:06.124Z,-1.50
2022-12-01T21:29:40.329Z,-1.50
2022-12-01T21:32:31.748Z,-1.50
2022-12-01T21:35:03.570Z,-1.20
2022-12-01T21:37:30.553Z,-1.40
2022-12-01T21:39:57.584Z,-1.30
2022-12-01T21:42:28.503Z,-1.00
2022-12-01T21:44:56.379Z,-1.00
2022-12-01T21:47:27.432Z,-1.10
2022-12-01T21:49:58.022Z,-1.10
2022-12-01T21:52:40.887Z,-1.20
2022-12-01T21:55:17.072Z,-0.80
2022-12-01T21:57:51.336Z,-1.30
2022-12-01T22:00:32.487Z,-1.40
2022-12-01T22:03:08.605Z,-0.90
2022-12-01T22:05:38.427Z,-1.30
2022-12-01T22:08:19.860Z,-1.00
2022-12-01T22:11:05.117Z,-1.30
2022-12-01T22:13:45.278Z,-1.40
2022-12-01T22:16:34.544Z,-1.30
2022-12-01T22:19:16.839Z,-1.30
2022-12-01T22:21:48.154Z,-1.30
2022-12-01T22:24:17.909Z,-1.30
2022-12-01T22:26:48.260Z,-1.30
2022-12-01T22:29:26.308Z,-1.00
2022-12-01T22:32:03.244Z,-1.30
2022-12-01T22:34:30.110Z,-1.40
2022-12-01T22:36:57.009Z,-1.40
2022-12-01T22:39:30.267Z,-0.60
2022-12-01T22:41:59.135Z,-1.00
2022-12-01T22:44:27.783Z,-1.10
2022-12-01T22:46:56.430Z,-0.90
2022-12-01T22:49:24.096Z,-1.20
2022-12-01T22:52:20.209Z,-1.20
2022-12-01T22:54:49.551Z,-1.20
2022-12-01T22:57:37.281Z,-0.80
2022-12-01T23:00:30.660Z,-1.10
2022-12-01T23:02:57.789Z,-1.00
2022-12-01T23:05:32.228Z,-1.00
2022-12-01T23:07:59.618Z,-1.00
2022-12-01T23:10:29.854Z,-1.00
2022-12-01T23:12:58.324Z,-1.10
2022-12-01T23:15:36.854Z,-0.60
2022-12-01T23:18:16.790Z,-1.10
2022-12-01T23:20:45.507Z,-1.20
2022-12-01T23:23:14.859Z,-1.30
2022-12-01T23:25:42.802Z,-1.30
2022-12-01T23:28:10.453Z,-1.00
2022-12-01T23:30:38.617Z,-1.20
2022-12-01T23:33:22.825Z,-1.20
2022-12-01T23:36:12.056Z,-0.90
2022-12-01T23:38:40.783Z,-1.30
2022-12-01T23:41:27.522Z,-1.10
2022-12-01T23:43:55.540Z,-1.40
2022-12-01T23:46:26.688Z,-1.40
2022-12-01T23:48:57.134Z,-1.30
2022-12-01T23:51:38.548Z,-1.00
2022-12-01T23:54:10.870Z,-1.40
2022-12-01T23:56:37.997Z,-1.20
2022-12-01T23:59:06.155Z,-0.80
